sensor_id;sensor_type;location;lat;lon;timestamp;pressure;altitude;pressure_sealevel;temperature;humidity
16120;BME280;12670;53.502;10.252;2023-08-01T00:01:44;99481.91;;;17.47;100.00
16120;BME280;12670;53.502;10.252;2023-08-01T00:04:47;99495.19;;;17.58;100.00
16120;BME280;12670;53.502;10.252;2023-08-01T00:07:50;99478.81;;;17.51;100.00
16120;BME280;12670;53.502;10.252;2023-08-01T00:10:54;99485.44;;;17.38;100.00
16120;BME280;12670;53.502;10.252;2023-08-01T00:13:56;99471.75;;;17.41;100.00
16120;BME280;12670;53.502;10.252;2023-08-01T00:16:59;99464.16;;;17.55;100.00
16120;BME280;12670;53.502;10.252;2023-08-01T00:20:02;99460.78;;;17.53;100.00
16120;BME280;12670;53.502;10.252;2023-08-01T00:23:05;99454.00;;;17.59;100.00
16120;BME280;12670;53.502;10.252;2023-08-01T00:26:09;99440.03;;;17.65;100.00
16120;BME280;12670;53.502;10.252;2023-08-01T00:29:12;99439.88;;;17.38;100.00
16120;BME280;12670;53.502;10.252;2023-08-01T00:32:15;99429.72;;;17.51;100.00
16120;BME280;12670;53.502;10.252;2023-08-01T00:35:17;99424.91;;;17.45;100.00
16120;BME280;12670;53.502;10.252;2023-08-01T00:38:20;99418.97;;;17.51;100.00
16120;BME280;12670;53.502;10.252;2023-08-01T00:41:24;99402.16;;;17.29;100.00
16120;BME280;12670;53.502;10.252;2023-08-01T00:44:27;99400.34;;;17.40;100.00
16120;BME280;12670;53.502;10.252;2023-08-01T00:47:30;99395.28;;;17.37;100.00
16120;BME280;12670;53.502;10.252;2023-08-01T00:50:33;99386.38;;;17.46;100.00
16120;BME280;12670;53.502;10.252;2023-08-01T00:53:36;99378.34;;;17.36;100.00
16120;BME280;12670;53.502;10.252;2023-08-01T00:56:40;99383.69;;;17.46;100.00
16120;BME280;12670;53.502;10.252;2023-08-01T00:59:43;99378.19;;;17.28;100.00
16120;BME280;12670;53.502;10.252;2023-08-01T01:02:46;99372.13;;;17.16;100.00
16120;BME280;12670;53.502;10.252;2023-08-01T01:05:53;99373.53;;;17.20;100.00
16120;BME280;12670;53.502;10.252;2023-08-01T01:08:56;99362.53;;;17.23;100.00
16120;BME280;12670;53.502;10.252;2023-08-01T01:12:00;99359.16;;;17.31;100.00
16120;BME280;12670;53.502;10.252;2023-08-01T01:15:04;99356.34;;;17.13;100.00
16120;BME280;12670;53.502;10.252;2023-08-01T01:18:07;99353.22;;;17.08;100.00
16120;BME280;12670;53.502;10.252;2023-08-01T01:21:11;99348.69;;;16.89;100.00
16120;BME280;12670;53.502;10.252;2023-08-01T01:24:14;99349.53;;;16.90;100.00
16120;BME280;12670;53.502;10.252;2023-08-01T01:27:18;99345.00;;;17.00;100.00
16120;BME280;12670;53.502;10.252;2023-08-01T01:30:21;99345.00;;;17.00;100.00
16120;BME280;12670;53.502;10.252;2023-08-01T01:33:24;99345.75;;;17.02;100.00
16120;BME280;12670;53.502;10.252;2023-08-01T01:36:28;99346.19;;;17.07;100.00
16120;BME280;12670;53.502;10.252;2023-08-01T01:39:31;99335.72;;;17.04;100.00
16120;BME280;12670;53.502;10.252;2023-08-01T01:42:34;99335.59;;;16.96;100.00
16120;BME280;12670;53.502;10.252;2023-08-01T01:45:36;99323.59;;;17.10;100.00
16120;BME280;12670;53.502;10.252;2023-08-01T01:48:39;99320.19;;;16.78;100.00
16120;BME280;12670;53.502;10.252;2023-08-01T01:51:45;99316.69;;;16.97;100.00
16120;BME280;12670;53.502;10.252;2023-08-01T01:54:47;99312.59;;;17.03;100.00
16120;BME280;12670;53.502;10.252;2023-08-01T01:57:50;99302.31;;;16.89;100.00
16120;BME280;12670;53.502;10.252;2023-08-01T02:00:53;99301.88;;;17.03;100.00
16120;BME280;12670;53.502;10.252;2023-08-01T02:03:55;99307.25;;;17.03;100.00
16120;BME280;12670;53.502;10.252;2023-08-01T02:06:59;99302.44;;;16.97;100.00
16120;BME280;12670;53.502;10.252;2023-08-01T02:10:02;99296.22;;;17.06;100.00
16120;BME280;12670;53.502;10.252;2023-08-01T02:13:05;99293.13;;;17.11;100.00
16120;BME280;12670;53.502;10.252;2023-08-01T02:16:09;99291.44;;;17.00;100.00
16120;BME280;12670;53.502;10.252;2023-08-01T02:19:12;99285.50;;;17.06;100.00
16120;BME280;12670;53.502;10.252;2023-08-01T02:22:16;99277.78;;;17.03;100.00
16120;BME280;12670;53.502;10.252;2023-08-01T02:25:19;99280.44;;;17.03;100.00
16120;BME280;12670;53.502;10.252;2023-08-01T02:28:21;99286.50;;;17.05;100.00
16120;BME280;12670;53.502;10.252;2023-08-01T02:31:24;99283.00;;;17.14;100.00
16120;BME280;12670;53.502;10.252;2023-08-01T02:34:27;99283.84;;;17.15;100.00
16120;BME280;12670;53.502;10.252;2023-08-01T02:37:31;99273.38;;;17.21;100.00
16120;BME280;12670;53.502;10.252;2023-08-01T02:40:33;99276.75;;;17.23;100.00
16120;BME280;12670;53.502;10.252;2023-08-01T02:43:36;99276.91;;;17.31;100.00
16120;BME280;12670;53.502;10.252;2023-08-01T02:46:39;99283.53;;;17.27;100.00
16120;BME280;12670;53.502;10.252;2023-08-01T02:49:42;99270.84;;;17.20;100.00
16120;BME280;12670;53.502;10.252;2023-08-01T02:52:47;99269.59;;;17.14;100.00
16120;BME280;12670;53.502;10.252;2023-08-01T02:55:49;99272.41;;;17.32;100.00
16120;BME280;12670;53.502;10.252;2023-08-01T02:58:52;99265.63;;;17.38;100.00
16120;BME280;12670;53.502;10.252;2023-08-01T03:01:56;99261.41;;;17.25;100.00
16120;BME280;12670;53.502;10.252;2023-08-01T03:04:59;99263.78;;;17.38;100.00
16120;BME280;12670;53.502;10.252;2023-08-01T03:08:03;99256.13;;;17.53;100.00
16120;BME280;12670;53.502;10.252;2023-08-01T03:11:06;99250.66;;;17.45;100.00
16120;BME280;12670;53.502;10.252;2023-08-01T03:14:09;99245.97;;;17.47;100.00
16120;BME280;12670;53.502;10.252;2023-08-01T03:17:11;99242.19;;;17.40;100.00
16120;BME280;12670;53.502;10.252;2023-08-01T03:20:14;99240.66;;;17.27;100.00
16120;BME280;12670;53.502;10.252;2023-08-01T03:23:18;99239.25;;;17.23;100.00
16120;BME280;12670;53.502;10.252;2023-08-01T03:26:21;99234.44;;;17.37;100.00
16120;BME280;12670;53.502;10.252;2023-08-01T03:29:23;99226.53;;;17.45;100.00
16120;BME280;12670;53.502;10.252;2023-08-01T03:32:26;99226.41;;;17.37;100.00
16120;BME280;12670;53.502;10.252;2023-08-01T03:35:29;99230.31;;;17.52;100.00
16120;BME280;12670;53.502;10.252;2023-08-01T03:38:33;99229.47;;;17.51;100.00
16120;BME280;12670;53.502;10.252;2023-08-01T03:41:36;99230.19;;;17.44;100.00
16120;BME280;12670;53.502;10.252;2023-08-01T03:44:39;99220.75;;;17.40;100.00
16120;BME280;12670;53.502;10.252;2023-08-01T03:47:41;99222.88;;;17.26;100.00
16120;BME280;12670;53.502;10.252;2023-08-01T03:50:44;99217.78;;;17.43;100.00
16120;BME280;12670;53.502;10.252;2023-08-01T03:53:48;99206.38;;;17.31;100.00
16120;BME280;12670;53.502;10.252;2023-08-01T03:57:08;99207.06;;;17.43;100.00
16120;BME280;12670;53.502;10.252;2023-08-01T04:00:12;99209.59;;;17.35;100.00
16120;BME280;12670;53.502;10.252;2023-08-01T04:03:15;99207.66;;;17.37;100.00
16120;BME280;12670;53.502;10.252;2023-08-01T04:06:18;99217.09;;;17.21;100.00
16120;BME280;12670;53.502;10.252;2023-08-01T04:09:22;99212.31;;;17.15;100.00
16120;BME280;12670;53.502;10.252;2023-08-01T04:12:25;99220.38;;;17.15;100.00
16120;BME280;12670;53.502;10.252;2023-08-01T04:15:27;99221.78;;;17.19;100.00
16120;BME280;12670;53.502;10.252;2023-08-01T04:18:31;99209.03;;;17.41;100.00
16120;BME280;12670;53.502;10.252;2023-08-01T04:21:34;99208.06;;;17.22;100.00
16120;BME280;12670;53.502;10.252;2023-08-01T04:24:38;99215.69;;;17.37;100.00
16120;BME280;12670;53.502;10.252;2023-08-01T04:27:40;99210.28;;;17.46;100.00
16120;BME280;12670;53.502;10.252;2023-08-01T04:30:48;99217.91;;;17.51;100.00
16120;BME280;12670;53.502;10.252;2023-08-01T04:33:51;99213.38;;;17.51;100.00
16120;BME280;12670;53.502;10.252;2023-08-01T04:36:54;99222.44;;;17.41;100.00
16120;BME280;12670;53.502;10.252;2023-08-01T04:39:58;99210.50;;;17.25;100.00
16120;BME280;12670;53.502;10.252;2023-08-01T04:43:00;99216.38;;;17.39;100.00
16120;BME280;12670;53.502;10.252;2023-08-01T04:46:03;99208.91;;;17.23;100.00
16120;BME280;12670;53.502;10.252;2023-08-01T04:49:06;99211.00;;;17.39;100.00
16120;BME280;12670;53.502;10.252;2023-08-01T04:52:09;99214.44;;;17.31;100.00
16120;BME280;12670;53.502;10.252;2023-08-01T04:55:13;99213.84;;;17.27;100.00
16120;BME280;12670;53.502;10.252;2023-08-01T04:58:15;99222.56;;;17.39;100.00
16120;BME280;12670;53.502;10.252;2023-08-01T05:01:18;99213.44;;;17.22;100.00
16120;BME280;12670;53.502;10.252;2023-08-01T05:04:21;99215.28;;;17.31;100.00
16120;BME280;12670;53.502;10.252;2023-08-01T05:07:24;99218.22;;;17.38;100.00
16120;BME280;12670;53.502;10.252;2023-08-01T05:10:28;99207.81;;;17.16;100.00
16120;BME280;12670;53.502;10.252;2023-08-01T05:13:30;99201.31;;;17.28;100.00
16120;BME280;12670;53.502;10.252;2023-08-01T05:16:33;99199.28;;;17.40;100.00
16120;BME280;12670;53.502;10.252;2023-08-01T05:19:35;99206.75;;;17.46;100.00
16120;BME280;12670;53.502;10.252;2023-08-01T05:22:38;99202.88;;;17.30;100.00
16120;BME280;12670;53.502;10.252;2023-08-01T05:25:42;99203.66;;;17.41;100.00
16120;BME280;12670;53.502;10.252;2023-08-01T05:28:45;99205.25;;;17.33;100.00
16120;BME280;12670;53.502;10.252;2023-08-01T05:31:48;99206.91;;;17.35;100.00
16120;BME280;12670;53.502;10.252;2023-08-01T05:34:50;99209.38;;;17.18;100.00
16120;BME280;12670;53.502;10.252;2023-08-01T05:37:53;99214.84;;;17.36;100.00
16120;BME280;12670;53.502;10.252;2023-08-01T05:40:57;99220.31;;;17.35;100.00
16120;BME280;12670;53.502;10.252;2023-08-01T05:43:59;99220.75;;;17.40;100.00
16120;BME280;12670;53.502;10.252;2023-08-01T05:47:02;99221.72;;;17.48;100.00
16120;BME280;12670;53.502;10.252;2023-08-01T05:50:06;99218.69;;;17.14;100.00
16120;BME280;12670;53.502;10.252;2023-08-01T05:53:08;99218.94;;;17.21;100.00
16120;BME280;12670;53.502;10.252;2023-08-01T05:56:13;99214.84;;;17.17;100.00
16120;BME280;12670;53.502;10.252;2023-08-01T05:59:16;99211.06;;;17.19;100.00
16120;BME280;12670;53.502;10.252;2023-08-01T06:02:19;99211.59;;;17.32;100.00
16120;BME280;12670;53.502;10.252;2023-08-01T06:05:22;99211.88;;;17.29;100.00
16120;BME280;12670;53.502;10.252;2023-08-01T06:08:25;99203.41;;;17.34;100.00
16120;BME280;12670;53.502;10.252;2023-08-01T06:11:29;99202.31;;;17.17;100.00
16120;BME280;12670;53.502;10.252;2023-08-01T06:14:32;99207.75;;;17.35;100.00
16120;BME280;12670;53.502;10.252;2023-08-01T06:17:34;99209.34;;;17.38;100.00
16120;BME280;12670;53.502;10.252;2023-08-01T06:20:37;99199.19;;;17.31;100.00
16120;BME280;12670;53.502;10.252;2023-08-01T06:23:40;99200.97;;;17.41;100.00
16120;BME280;12670;53.502;10.252;2023-08-01T06:26:44;99199.03;;;17.23;100.00
16120;BME280;12670;53.502;10.252;2023-08-01T06:29:47;99200.19;;;17.21;100.00
16120;BME280;12670;53.502;10.252;2023-08-01T06:32:50;99199.44;;;17.38;100.00
16120;BME280;12670;53.502;10.252;2023-08-01T06:35:52;99201.97;;;17.40;100.00
16120;BME280;12670;53.502;10.252;2023-08-01T06:38:55;99206.91;;;17.44;100.00
16120;BME280;12670;53.502;10.252;2023-08-01T06:41:59;99207.31;;;17.59;100.00
16120;BME280;12670;53.502;10.252;2023-08-01T06:45:02;99207.31;;;17.59;100.00
16120;BME280;12670;53.502;10.252;2023-08-01T06:48:04;99216.47;;;17.56;100.00
16120;BME280;12670;53.502;10.252;2023-08-01T06:51:07;99210.09;;;17.67;100.00
16120;BME280;12670;53.502;10.252;2023-08-01T06:54:10;99209.09;;;17.68;100.00
16120;BME280;12670;53.502;10.252;2023-08-01T06:57:14;99216.44;;;17.66;100.00
16120;BME280;12670;53.502;10.252;2023-08-01T07:00:17;99218.31;;;17.56;100.00
16120;BME280;12670;53.502;10.252;2023-08-01T07:03:20;99228.19;;;17.55;100.00
16120;BME280;12670;53.502;10.252;2023-08-01T07:06:23;99221.47;;;17.42;100.00
16120;BME280;12670;53.502;10.252;2023-08-01T07:09:26;99229.94;;;17.37;100.00
16120;BME280;12670;53.502;10.252;2023-08-01T07:12:30;99226.94;;;17.40;100.00
16120;BME280;12670;53.502;10.252;2023-08-01T07:15:33;99233.63;;;17.26;100.00
16120;BME280;12670;53.502;10.252;2023-08-01T07:18:35;99232.78;;;17.26;100.00
16120;BME280;12670;53.502;10.252;2023-08-01T07:21:38;99226.94;;;17.40;100.00
16120;BME280;12670;53.502;10.252;2023-08-01T07:24:41;99222.16;;;17.44;100.00
16120;BME280;12670;53.502;10.252;2023-08-01T07:27:45;99221.47;;;17.42;100.00
16120;BME280;12670;53.502;10.252;2023-08-01T07:30:48;99222.31;;;17.42;100.00
16120;BME280;12670;53.502;10.252;2023-08-01T07:33:51;99216.84;;;17.71;100.00
16120;BME280;12670;53.502;10.252;2023-08-01T07:36:54;99212.31;;;17.81;100.00
16120;BME280;12670;53.502;10.252;2023-08-01T07:39:57;99213.69;;;17.95;100.00
16120;BME280;12670;53.502;10.252;2023-08-01T07:43:01;99211.84;;;17.96;100.00
16120;BME280;12670;53.502;10.252;2023-08-01T07:46:03;99209.34;;;17.84;100.00
16120;BME280;12670;53.502;10.252;2023-08-01T07:49:06;99211.75;;;18.15;100.00
16120;BME280;12670;53.502;10.252;2023-08-01T07:52:09;99205.88;;;18.29;100.00
16120;BME280;12670;53.502;10.252;2023-08-01T07:55:12;99210.00;;;18.24;100.00
16120;BME280;12670;53.502;10.252;2023-08-01T07:58:17;99207.25;;;18.33;100.00
16120;BME280;12670;53.502;10.252;2023-08-01T08:01:19;99204.81;;;18.40;100.00
16120;BME280;12670;53.502;10.252;2023-08-01T08:04:22;99217.50;;;18.48;100.00
16120;BME280;12670;53.502;10.252;2023-08-01T08:07:25;99215.31;;;18.33;100.00
16120;BME280;12670;53.502;10.252;2023-08-01T08:10:27;99219.94;;;18.41;100.00
16120;BME280;12670;53.502;10.252;2023-08-01T08:13:31;99216.69;;;18.37;100.00
16120;BME280;12670;53.502;10.252;2023-08-01T08:16:34;99214.31;;;18.34;100.00
16120;BME280;12670;53.502;10.252;2023-08-01T08:19:37;99218.56;;;18.55;100.00
16120;BME280;12670;53.502;10.252;2023-08-01T08:22:40;99218.97;;;18.60;100.00
16120;BME280;12670;53.502;10.252;2023-08-01T08:25:43;99219.06;;;18.68;100.00
16120;BME280;12670;53.502;10.252;2023-08-01T08:28:49;99211.50;;;18.54;100.00
16120;BME280;12670;53.502;10.252;2023-08-01T08:31:51;99217.63;;;18.46;100.00
16120;BME280;12670;53.502;10.252;2023-08-01T08:34:54;99215.75;;;18.74;100.00
16120;BME280;12670;53.502;10.252;2023-08-01T08:37:58;99211.78;;;18.78;100.00
16120;BME280;12670;53.502;10.252;2023-08-01T08:41:06;99200.47;;;18.75;100.00
16120;BME280;12670;53.502;10.252;2023-08-01T08:44:15;99208.72;;;18.73;100.00
16120;BME280;12670;53.502;10.252;2023-08-01T08:47:19;99209.84;;;18.53;100.00
16120;BME280;12670;53.502;10.252;2023-08-01T08:50:24;99212.75;;;18.59;100.00
16120;BME280;12670;53.502;10.252;2023-08-01T08:53:27;99218.22;;;18.68;100.00
16120;BME280;12670;53.502;10.252;2023-08-01T08:56:30;99215.06;;;18.90;100.00
16120;BME280;12670;53.502;10.252;2023-08-01T08:59:34;99203.16;;;18.92;100.00
16120;BME280;12670;53.502;10.252;2023-08-01T09:02:38;99207.63;;;19.28;100.00
16120;BME280;12670;53.502;10.252;2023-08-01T09:05:49;99197.00;;;19.18;100.00
16120;BME280;12670;53.502;10.252;2023-08-01T09:08:56;99201.22;;;19.21;100.00
16120;BME280;12670;53.502;10.252;2023-08-01T09:12:00;99198.47;;;19.12;100.00
16120;BME280;12670;53.502;10.252;2023-08-01T09:15:06;99201.44;;;19.27;100.00
16120;BME280;12670;53.502;10.252;2023-08-01T09:18:09;99198.94;;;19.34;100.00
16120;BME280;12670;53.502;10.252;2023-08-01T09:21:12;99200.03;;;19.67;100.00
16120;BME280;12670;53.502;10.252;2023-08-01T09:24:16;99200.41;;;20.14;100.00
16120;BME280;12670;53.502;10.252;2023-08-01T09:27:21;99191.16;;;20.09;100.00
16120;BME280;12670;53.502;10.252;2023-08-01T09:30:26;99191.81;;;20.11;100.00
16120;BME280;12670;53.502;10.252;2023-08-01T09:33:38;99192.97;;;20.00;100.00
16120;BME280;12670;53.502;10.252;2023-08-01T09:36:41;99188.00;;;19.79;100.00
16120;BME280;12670;53.502;10.252;2023-08-01T09:39:44;99192.91;;;19.92;100.00
16120;BME280;12670;53.502;10.252;2023-08-01T09:42:48;99199.59;;;20.22;100.00
16120;BME280;12670;53.502;10.252;2023-08-01T09:45:53;99194.50;;;20.11;100.00
16120;BME280;12670;53.502;10.252;2023-08-01T09:49:06;99189.63;;;20.57;100.00
16120;BME280;12670;53.502;10.252;2023-08-01T09:52:09;99196.06;;;20.80;100.00
16120;BME280;12670;53.502;10.252;2023-08-01T09:55:11;99200.94;;;20.76;100.00
16120;BME280;12670;53.502;10.252;2023-08-01T09:58:16;99192.00;;;20.92;100.00
16120;BME280;12670;53.502;10.252;2023-08-01T10:01:22;99189.00;;;21.12;100.00
16120;BME280;12670;53.502;10.252;2023-08-01T10:04:27;99180.56;;;21.39;100.00
16120;BME280;12670;53.502;10.252;2023-08-01T10:07:32;99180.53;;;21.55;100.00
16120;BME280;12670;53.502;10.252;2023-08-01T10:10:36;99186.47;;;21.43;100.00
16120;BME280;12670;53.502;10.252;2023-08-01T10:13:41;99194.03;;;21.47;100.00
16120;BME280;12670;53.502;10.252;2023-08-01T10:16:46;99187.97;;;21.13;100.00
16120;BME280;12670;53.502;10.252;2023-08-01T10:19:49;99183.59;;;20.79;100.00
16120;BME280;12670;53.502;10.252;2023-08-01T10:22:52;99180.91;;;21.20;100.00
16120;BME280;12670;53.502;10.252;2023-08-01T10:25:56;99180.56;;;21.23;100.00
16120;BME280;12670;53.502;10.252;2023-08-01T10:29:00;99174.50;;;20.80;100.00
16120;BME280;12670;53.502;10.252;2023-08-01T10:32:06;99178.91;;;21.06;100.00
16120;BME280;12670;53.502;10.252;2023-08-01T10:35:09;99182.94;;;20.93;100.00
16120;BME280;12670;53.502;10.252;2023-08-01T10:38:12;99185.59;;;21.26;100.00
16120;BME280;12670;53.502;10.252;2023-08-01T10:41:19;99177.69;;;21.08;100.00
16120;BME280;12670;53.502;10.252;2023-08-01T10:44:22;99186.97;;;21.14;100.00
16120;BME280;12670;53.502;10.252;2023-08-01T10:47:27;99171.38;;;21.73;100.00
16120;BME280;12670;53.502;10.252;2023-08-01T10:50:29;99173.16;;;22.36;100.00
16120;BME280;12670;53.502;10.252;2023-08-01T10:53:37;99179.56;;;21.96;100.00
16120;BME280;12670;53.502;10.252;2023-08-01T10:56:44;99183.41;;;22.09;100.00
16120;BME280;12670;53.502;10.252;2023-08-01T10:59:47;99180.78;;;21.85;100.00
16120;BME280;12670;53.502;10.252;2023-08-01T11:02:51;99172.06;;;21.67;100.00
16120;BME280;12670;53.502;10.252;2023-08-01T11:05:57;99172.34;;;21.80;100.00
16120;BME280;12670;53.502;10.252;2023-08-01T11:09:00;99174.28;;;22.02;100.00
16120;BME280;12670;53.502;10.252;2023-08-01T11:12:03;99170.06;;;22.39;100.00
16120;BME280;12670;53.502;10.252;2023-08-01T11:15:08;99170.16;;;23.23;100.00
16120;BME280;12670;53.502;10.252;2023-08-01T11:18:13;99172.41;;;23.86;100.00
16120;BME280;12670;53.502;10.252;2023-08-01T11:21:25;99164.13;;;24.09;88.25
16120;BME280;12670;53.502;10.252;2023-08-01T11:24:27;99160.09;;;24.35;93.51
16120;BME280;12670;53.502;10.252;2023-08-01T11:27:30;99164.59;;;24.28;90.29
16120;BME280;12670;53.502;10.252;2023-08-01T11:30:33;99180.50;;;23.72;87.73
16120;BME280;12670;53.502;10.252;2023-08-01T11:33:38;99220.09;;;22.35;86.44
16120;BME280;12670;53.502;10.252;2023-08-01T11:36:40;99222.34;;;21.51;90.60
16120;BME280;12670;53.502;10.252;2023-08-01T11:39:44;99227.16;;;20.50;94.41
16120;BME280;12670;53.502;10.252;2023-08-01T11:42:48;99251.19;;;20.01;97.00
16120;BME280;12670;53.502;10.252;2023-08-01T11:45:55;99254.16;;;19.64;100.00
16120;BME280;12670;53.502;10.252;2023-08-01T11:49:01;99267.63;;;19.28;100.00
16120;BME280;12670;53.502;10.252;2023-08-01T11:52:05;99258.34;;;18.87;100.00
16120;BME280;12670;53.502;10.252;2023-08-01T11:55:18;99254.59;;;18.52;100.00
16120;BME280;12670;53.502;10.252;2023-08-01T11:58:28;99253.59;;;18.35;100.00
16120;BME280;12670;53.502;10.252;2023-08-01T12:01:31;99259.13;;;18.52;100.00
16120;BME280;12670;53.502;10.252;2023-08-01T12:04:41;99261.25;;;18.30;100.00
16120;BME280;12670;53.502;10.252;2023-08-01T12:07:44;99260.25;;;18.31;100.00
16120;BME280;12670;53.502;10.252;2023-08-01T12:10:46;99263.63;;;18.33;100.00
16120;BME280;12670;53.502;10.252;2023-08-01T12:14:00;99254.88;;;18.59;100.00
16120;BME280;12670;53.502;10.252;2023-08-01T12:17:04;99271.63;;;19.60;100.00
16120;BME280;12670;53.502;10.252;2023-08-01T12:20:09;99265.47;;;20.02;100.00
16120;BME280;12670;53.502;10.252;2023-08-01T12:23:11;99261.41;;;19.97;100.00
16120;BME280;12670;53.502;10.252;2023-08-01T12:26:14;99257.69;;;20.24;100.00
16120;BME280;12670;53.502;10.252;2023-08-01T12:29:17;99260.22;;;20.34;100.00
16120;BME280;12670;53.502;10.252;2023-08-01T12:32:19;99269.88;;;20.11;100.00
16120;BME280;12670;53.502;10.252;2023-08-01T12:35:24;99276.28;;;20.10;100.00
16120;BME280;12670;53.502;10.252;2023-08-01T12:38:26;99276.91;;;19.95;100.00
16120;BME280;12670;53.502;10.252;2023-08-01T12:41:29;99271.81;;;19.92;100.00
16120;BME280;12670;53.502;10.252;2023-08-01T12:44:32;99270.34;;;19.72;100.00
16120;BME280;12670;53.502;10.252;2023-08-01T12:47:34;99294.00;;;19.60;100.00
16120;BME280;12670;53.502;10.252;2023-08-01T12:50:43;99295.09;;;19.58;100.00
16120;BME280;12670;53.502;10.252;2023-08-01T12:53:46;99299.03;;;19.45;100.00
16120;BME280;12670;53.502;10.252;2023-08-01T12:56:48;99298.69;;;19.05;100.00
16120;BME280;12670;53.502;10.252;2023-08-01T12:59:51;99306.28;;;18.64;100.00
16120;BME280;12670;53.502;10.252;2023-08-01T13:02:54;99300.22;;;18.34;100.00
16120;BME280;12670;53.502;10.252;2023-08-01T13:05:58;99298.78;;;18.40;100.00
16120;BME280;12670;53.502;10.252;2023-08-01T13:09:01;99303.66;;;18.27;100.00
16120;BME280;12670;53.502;10.252;2023-08-01T13:12:05;99304.25;;;18.76;100.00
16120;BME280;12670;53.502;10.252;2023-08-01T13:15:08;99301.50;;;19.39;100.00
16120;BME280;12670;53.502;10.252;2023-08-01T13:18:18;99303.44;;;19.47;100.00
16120;BME280;12670;53.502;10.252;2023-08-01T13:21:23;99308.09;;;19.44;100.00
16120;BME280;12670;53.502;10.252;2023-08-01T13:24:25;99306.19;;;19.55;100.00
16120;BME280;12670;53.502;10.252;2023-08-01T13:27:28;99311.72;;;19.71;100.00
16120;BME280;12670;53.502;10.252;2023-08-01T13:30:31;99309.28;;;20.12;100.00
16120;BME280;12670;53.502;10.252;2023-08-01T13:33:34;99295.00;;;20.45;100.00
16120;BME280;12670;53.502;10.252;2023-08-01T13:36:37;99286.47;;;20.66;100.00
16120;BME280;12670;53.502;10.252;2023-08-01T13:39:41;99284.72;;;20.99;100.00
16120;BME280;12670;53.502;10.252;2023-08-01T13:42:43;99272.25;;;21.15;100.00
16120;BME280;12670;53.502;10.252;2023-08-01T13:45:46;99258.44;;;21.50;100.00
16120;BME280;12670;53.502;10.252;2023-08-01T13:48:49;99264.19;;;21.47;100.00
16120;BME280;12670;53.502;10.252;2023-08-01T13:51:53;99262.50;;;21.30;100.00
16120;BME280;12670;53.502;10.252;2023-08-01T13:54:55;99265.50;;;21.51;100.00
16120;BME280;12670;53.502;10.252;2023-08-01T13:57:58;99268.59;;;21.40;100.00
16120;BME280;12670;53.502;10.252;2023-08-01T14:01:02;99268.00;;;20.88;100.00
16120;BME280;12670;53.502;10.252;2023-08-01T14:04:06;99273.72;;;20.85;100.00
16120;BME280;12670;53.502;10.252;2023-08-01T14:07:10;99283.91;;;20.57;100.00
16120;BME280;12670;53.502;10.252;2023-08-01T14:10:13;99288.44;;;20.48;100.00
16120;BME280;12670;53.502;10.252;2023-08-01T14:13:16;99302.09;;;20.46;100.00
16120;BME280;12670;53.502;10.252;2023-08-01T14:16:19;99305.16;;;20.60;100.00
16120;BME280;12670;53.502;10.252;2023-08-01T14:19:22;99298.81;;;20.77;100.00
16120;BME280;12670;53.502;10.252;2023-08-01T14:22:26;99301.19;;;20.88;100.00
16120;BME280;12670;53.502;10.252;2023-08-01T14:25:29;99306.47;;;21.14;100.00
16120;BME280;12670;53.502;10.252;2023-08-01T14:28:32;99297.91;;;20.60;100.00
16120;BME280;12670;53.502;10.252;2023-08-01T14:31:35;99305.72;;;20.37;100.00
16120;BME280;12670;53.502;10.252;2023-08-01T14:34:38;99301.59;;;19.91;100.00
16120;BME280;12670;53.502;10.252;2023-08-01T14:37:42;99312.00;;;20.20;100.00
16120;BME280;12670;53.502;10.252;2023-08-01T14:40:49;99320.44;;;19.65;100.00
16120;BME280;12670;53.502;10.252;2023-08-01T14:44:11;99329.47;;;19.46;100.00
16120;BME280;12670;53.502;10.252;2023-08-01T14:47:14;99338.69;;;19.43;100.00
16120;BME280;12670;53.502;10.252;2023-08-01T14:50:17;99350.53;;;19.15;100.00
16120;BME280;12670;53.502;10.252;2023-08-01T14:53:21;99361.22;;;19.07;100.00
16120;BME280;12670;53.502;10.252;2023-08-01T14:56:23;99358.91;;;19.48;100.00
16120;BME280;12670;53.502;10.252;2023-08-01T14:59:26;99352.91;;;19.54;100.00
16120;BME280;12670;53.502;10.252;2023-08-01T15:02:29;99355.84;;;19.78;100.00
16120;BME280;12670;53.502;10.252;2023-08-01T15:05:31;99364.34;;;19.91;100.00
16120;BME280;12670;53.502;10.252;2023-08-01T15:08:37;99356.34;;;20.00;100.00
16120;BME280;12670;53.502;10.252;2023-08-01T15:11:40;99361.59;;;20.09;100.00
16120;BME280;12670;53.502;10.252;2023-08-01T15:14:43;99370.94;;;19.97;100.00
16120;BME280;12670;53.502;10.252;2023-08-01T15:17:46;99376.16;;;19.98;100.00
16120;BME280;12670;53.502;10.252;2023-08-01T15:20:49;99388.25;;;19.94;100.00
16120;BME280;12670;53.502;10.252;2023-08-01T15:23:53;99379.38;;;19.76;100.00
16120;BME280;12670;53.502;10.252;2023-08-01T15:26:56;99373.25;;;19.56;100.00
16120;BME280;12670;53.502;10.252;2023-08-01T15:29:58;99380.28;;;19.67;100.00
16120;BME280;12670;53.502;10.252;2023-08-01T15:33:01;99381.50;;;19.90;100.00
16120;BME280;12670;53.502;10.252;2023-08-01T15:36:05;99387.63;;;20.01;100.00
16120;BME280;12670;53.502;10.252;2023-08-01T15:39:09;99388.03;;;20.14;100.00
16120;BME280;12670;53.502;10.252;2023-08-01T15:42:12;99388.56;;;19.91;100.00
16120;BME280;12670;53.502;10.252;2023-08-01T15:45:15;99399.16;;;19.93;100.00
16120;BME280;12670;53.502;10.252;2023-08-01T15:48:17;99399.94;;;19.85;100.00